createdAt,value
2019-05-30T00:00:29.024Z,0.87
2019-05-30T00:03:33.005Z,0.93
2019-05-30T00:06:36.884Z,0.90
2019-05-30T00:09:41.804Z,0.80
2019-05-30T00:12:45.648Z,0.80
2019-05-30T00:15:49.583Z,0.90
2019-05-30T00:18:54.555Z,1.10
2019-05-30T00:21:58.696Z,0.90
2019-05-30T00:25:02.673Z,1.13
2019-05-30T00:28:07.560Z,0.93
2019-05-30T00:31:11.439Z,0.80
2019-05-30T00:34:15.250Z,1.10
2019-05-30T00:37:19.091Z,1.00
2019-05-30T00:40:23.034Z,1.07
2019-05-30T00:43:26.994Z,1.47
2019-05-30T00:46:30.790Z,1.30
2019-05-30T00:49:34.700Z,1.13
2019-05-30T00:52:38.604Z,1.20
2019-05-30T00:55:42.434Z,1.00
2019-05-30T00:58:46.316Z,1.20
2019-05-30T01:01:50.215Z,1.20
2019-05-30T01:04:54.054Z,1.50
2019-05-30T01:07:58.781Z,1.30
2019-05-30T01:11:03.151Z,1.27
2019-05-30T01:14:07.590Z,1.17
2019-05-30T01:17:11.634Z,1.17
2019-05-30T01:20:16.305Z,0.73
2019-05-30T01:23:20.286Z,1.30
2019-05-30T01:26:24.130Z,1.30
2019-05-30T01:29:28.069Z,1.50
2019-05-30T01:32:31.905Z,1.07
2019-05-30T01:35:35.795Z,1.00
2019-05-30T01:38:39.721Z,1.40
2019-05-30T01:41:43.554Z,1.40
2019-05-30T01:44:47.436Z,1.13
2019-05-30T01:47:51.288Z,1.53
2019-05-30T01:50:55.131Z,1.30
2019-05-30T01:53:58.981Z,1.53
2019-05-30T01:57:02.818Z,1.30
2019-05-30T02:00:18.753Z,1.40
2019-05-30T02:03:12.921Z,1.27
2019-05-30T02:06:16.794Z,1.60
2019-05-30T02:09:20.681Z,1.63
2019-05-30T02:12:24.504Z,1.37
2019-05-30T02:15:28.513Z,1.37
2019-05-30T02:18:32.392Z,1.30
2019-05-30T02:21:36.210Z,1.63
2019-05-30T02:24:40.019Z,1.40
2019-05-30T02:27:43.836Z,1.40
2019-05-30T02:30:47.731Z,1.60
2019-05-30T02:33:51.631Z,1.57
2019-05-30T02:36:55.539Z,1.40
2019-05-30T02:40:02.551Z,1.67
2019-05-30T02:43:05.806Z,1.87
2019-05-30T02:46:12.551Z,1.80
2019-05-30T02:49:16.464Z,1.60
2019-05-30T02:52:20.375Z,1.87
2019-05-30T02:55:24.285Z,1.70
2019-05-30T02:58:28.126Z,1.80
2019-05-30T03:01:31.944Z,1.80
2019-05-30T03:04:35.822Z,1.73
2019-05-30T03:07:40.202Z,1.70
2019-05-30T03:10:44.209Z,1.83
2019-05-30T03:13:48.164Z,1.63
2019-05-30T03:16:52.177Z,1.80
2019-05-30T03:19:56.065Z,1.67
2019-05-30T03:22:59.979Z,1.87
2019-05-30T03:26:04.882Z,1.97
2019-05-30T03:29:11.786Z,2.00
2019-05-30T03:32:59.337Z,1.80
2019-05-30T03:35:28.770Z,2.13
2019-05-30T03:38:27.198Z,1.93
2019-05-30T03:41:31.183Z,1.60
2019-05-30T03:44:35.094Z,1.90
2019-05-30T03:47:42.817Z,1.60
2019-05-30T03:50:50.243Z,1.93
2019-05-30T03:53:54.818Z,1.77
2019-05-30T03:57:18.004Z,1.87
2019-05-30T04:00:50.821Z,1.67
2019-05-30T04:04:04.410Z,1.73
2019-05-30T04:07:13.848Z,1.77
2019-05-30T04:10:21.188Z,1.63
2019-05-30T04:13:37.169Z,1.73
2019-05-30T04:16:40.988Z,1.97
2019-05-30T04:19:44.823Z,1.73
2019-05-30T04:22:48.669Z,1.80
2019-05-30T04:25:52.545Z,1.70
2019-05-30T04:28:56.444Z,1.53
2019-05-30T04:32:00.274Z,1.60
2019-05-30T04:35:04.235Z,1.70
2019-05-30T04:38:08.558Z,1.40
2019-05-30T04:41:13.443Z,1.60
2019-05-30T04:44:19.747Z,1.67
2019-05-30T04:47:23.653Z,1.87
2019-05-30T04:50:27.621Z,1.40
2019-05-30T04:53:31.541Z,1.83
2019-05-30T04:56:35.342Z,1.50
2019-05-30T04:59:39.251Z,1.80
2019-05-30T05:02:43.095Z,1.80
2019-05-30T05:05:46.901Z,1.53
2019-05-30T05:08:50.786Z,1.83
2019-05-30T05:11:54.593Z,1.70
2019-05-30T05:14:58.414Z,1.80
2019-05-30T05:18:02.247Z,1.57
2019-05-30T05:21:06.164Z,1.63
2019-05-30T05:24:09.978Z,1.80
2019-05-30T05:27:13.803Z,1.67
2019-05-30T05:30:18.014Z,1.83
2019-05-30T05:33:22.643Z,1.60
2019-05-30T05:36:26.782Z,1.80
2019-05-30T05:39:30.587Z,1.70
2019-05-30T05:42:34.415Z,2.00
2019-05-30T05:45:38.329Z,2.00
2019-05-30T05:48:42.171Z,1.80
2019-05-30T05:51:46.003Z,2.10
2019-05-30T05:54:49.788Z,1.77
2019-05-30T05:57:53.677Z,1.70
2019-05-30T06:00:57.555Z,1.90
2019-05-30T06:04:12.518Z,2.30
2019-05-30T06:07:07.040Z,2.50
2019-05-30T06:10:11.210Z,2.20
2019-05-30T06:13:25.840Z,2.30
2019-05-30T06:16:34.534Z,2.23
2019-05-30T06:19:48.641Z,2.00
2019-05-30T06:23:54.576Z,2.40
2019-05-30T06:35:47.390Z,2.87
2019-05-30T06:38:51.753Z,2.90
2019-05-30T06:42:41.539Z,3.37
2019-05-30T06:49:53.871Z,3.13
2019-05-30T06:53:12.696Z,5.13
2019-05-30T06:56:44.567Z,3.70
2019-05-30T06:59:53.563Z,3.63
2019-05-30T07:03:32.501Z,4.10
2019-05-30T07:14:04.221Z,4.90
2019-05-30T07:17:10.347Z,4.80
2019-05-30T07:20:16.547Z,5.10
2019-05-30T07:23:23.751Z,5.27
2019-05-30T07:26:27.844Z,6.57
2019-05-30T07:29:32.155Z,5.97
2019-05-30T07:32:36.738Z,6.40
2019-05-30T07:35:40.545Z,6.37
2019-05-30T07:38:44.413Z,7.07
2019-05-30T07:42:04.945Z,7.37
2019-05-30T07:44:53.931Z,8.30
2019-05-30T07:47:57.962Z,7.80
2019-05-30T07:51:01.989Z,8.60
2019-05-30T07:54:06.214Z,8.87
2019-05-30T07:57:10.186Z,9.17
2019-05-30T08:00:16.028Z,9.63
2019-05-30T08:03:19.977Z,10.67
2019-05-30T08:06:23.886Z,10.57
2019-05-30T08:09:29.246Z,9.70
2019-05-30T08:12:34.145Z,11.23
2019-05-30T08:15:43.796Z,11.50
2019-05-30T08:18:44.240Z,11.40
2019-05-30T08:21:48.161Z,10.03
2019-05-30T08:24:52.003Z,11.33
2019-05-30T08:27:55.904Z,11.90
2019-05-30T08:30:59.762Z,12.90
2019-05-30T08:34:03.698Z,12.50
2019-05-30T08:37:07.626Z,12.10
2019-05-30T08:40:12.571Z,13.63
2019-05-30T08:43:16.495Z,13.83
2019-05-30T08:46:20.364Z,15.10
2019-05-30T08:49:24.250Z,15.67
2019-05-30T08:52:28.227Z,15.67
2019-05-30T08:55:32.458Z,17.73
2019-05-30T08:58:36.808Z,17.33
2019-05-30T09:01:41.990Z,15.60
2019-05-30T09:04:46.111Z,17.13
2019-05-30T09:07:50.022Z,16.87
2019-05-30T09:10:54.010Z,15.23
2019-05-30T09:13:57.891Z,15.73
2019-05-30T09:17:01.734Z,16.57
2019-05-30T09:20:07.453Z,15.73
2019-05-30T09:23:11.475Z,16.73
2019-05-30T09:26:15.483Z,17.33
2019-05-30T09:29:19.336Z,19.00
2019-05-30T09:32:23.227Z,18.53
2019-05-30T09:35:27.248Z,19.50
2019-05-30T09:38:31.141Z,21.50
2019-05-30T09:41:35.016Z,21.00
2019-05-30T09:44:40.530Z,19.67
2019-05-30T09:47:46.600Z,20.97
2019-05-30T09:50:51.116Z,22.40
2019-05-30T09:53:55.040Z,21.57
2019-05-30T09:56:58.984Z,22.60
2019-05-30T10:00:03.025Z,22.43
2019-05-30T10:03:07.149Z,23.83
2019-05-30T10:06:11.227Z,24.03
2019-05-30T10:09:15.246Z,24.53
2019-05-30T10:12:19.262Z,25.50
2019-05-30T10:15:23.774Z,26.73
2019-05-30T10:18:27.624Z,25.20
2019-05-30T10:21:31.526Z,25.17
2019-05-30T10:24:35.442Z,26.23
2019-05-30T10:27:39.435Z,25.93
2019-05-30T10:30:43.332Z,27.57
2019-05-30T10:33:47.965Z,28.43
2019-05-30T10:36:53.731Z,28.87
2019-05-30T10:39:59.180Z,29.43
2019-05-30T10:43:03.346Z,30.20
2019-05-30T10:46:07.362Z,35.07
2019-05-30T10:49:11.188Z,30.37
2019-05-30T10:52:15.119Z,32.60
2019-05-30T10:55:21.017Z,31.73
2019-05-30T10:58:24.999Z,28.93
2019-05-30T11:01:28.939Z,28.90
2019-05-30T11:04:32.940Z,26.70
2019-05-30T11:08:02.052Z,26.17
2019-05-30T11:10:59.307Z,27.30
2019-05-30T11:14:03.374Z,28.43
2019-05-30T11:17:07.328Z,27.47
2019-05-30T11:20:11.511Z,26.60
2019-05-30T11:23:15.493Z,29.87
2019-05-30T11:26:19.937Z,30.30
2019-05-30T11:29:24.981Z,28.40
2019-05-30T11:32:28.853Z,30.60
2019-05-30T11:35:33.393Z,29.77
2019-05-30T11:38:37.265Z,28.83
2019-05-30T11:41:41.193Z,27.80
2019-05-30T11:44:45.119Z,27.53
2019-05-30T11:47:49.554Z,28.40
2019-05-30T11:50:53.794Z,25.83
2019-05-30T11:53:58.075Z,27.37
2019-05-30T11:57:01.892Z,26.93
2019-05-30T12:00:06.860Z,27.03
2019-05-30T12:03:10.836Z,28.30
2019-05-30T12:06:14.771Z,26.83
2019-05-30T12:09:18.627Z,28.00
2019-05-30T12:12:22.600Z,27.50
2019-05-30T12:15:27.618Z,26.93
2019-05-30T12:18:31.506Z,25.90
2019-05-30T12:21:35.413Z,26.20
2019-05-30T12:24:39.349Z,24.50
2019-05-30T12:27:43.253Z,24.80
2019-05-30T12:30:57.736Z,26.43
2019-05-30T12:33:54.095Z,27.80
2019-05-30T12:36:58.522Z,29.13
2019-05-30T12:40:03.223Z,29.57
2019-05-30T12:43:07.283Z,32.60
2019-05-30T12:46:11.151Z,37.73
2019-05-30T12:49:15.005Z,35.80
2019-05-30T12:52:18.831Z,36.87
2019-05-30T12:55:22.836Z,35.07
2019-05-30T12:58:26.757Z,34.40
2019-05-30T13:01:30.693Z,36.70
2019-05-30T13:04:34.519Z,29.73
2019-05-30T13:07:38.448Z,33.37
2019-05-30T13:10:42.440Z,34.27
2019-05-30T13:13:46.429Z,32.77
2019-05-30T13:16:50.340Z,32.33
2019-05-30T13:19:55.012Z,32.70
2019-05-30T13:22:59.163Z,32.50
2019-05-30T13:26:04.210Z,33.40
2019-05-30T13:29:08.226Z,32.40
2019-05-30T13:32:12.111Z,32.50
2019-05-30T13:35:16.923Z,33.40
2019-05-30T13:38:26.458Z,31.67
2019-05-30T13:41:26.384Z,32.80
2019-05-30T13:44:30.257Z,31.50
2019-05-30T13:47:34.123Z,31.00
2019-05-30T13:50:38.041Z,31.03
2019-05-30T13:53:42.059Z,28.47
2019-05-30T13:56:45.958Z,31.40
2019-05-30T13:59:49.783Z,27.90
2019-05-30T14:02:53.729Z,30.97
2019-05-30T14:05:57.563Z,29.57
2019-05-30T14:09:02.395Z,29.83
2019-05-30T14:12:06.780Z,27.07
2019-05-30T14:15:14.367Z,28.17
2019-05-30T14:18:18.292Z,28.13
2019-05-30T14:21:22.161Z,25.90
2019-05-30T14:24:27.075Z,27.53
2019-05-30T14:27:30.907Z,27.43
2019-05-30T14:30:34.895Z,27.43
2019-05-30T14:33:38.832Z,27.43
2019-05-30T14:36:42.813Z,25.00
2019-05-30T14:39:46.686Z,25.67
2019-05-30T14:42:50.640Z,26.50
2019-05-30T14:45:54.499Z,23.93
2019-05-30T14:49:04.597Z,22.73
2019-05-30T14:52:08.838Z,24.13
2019-05-30T14:55:14.015Z,22.97
2019-05-30T14:58:17.923Z,22.97
2019-05-30T15:01:21.742Z,23.20
2019-05-30T15:04:25.619Z,21.07
2019-05-30T15:07:29.526Z,22.30
2019-05-30T15:10:33.446Z,21.23
2019-05-30T15:13:37.372Z,21.37
2019-05-30T15:16:41.209Z,19.87
2019-05-30T15:19:45.087Z,20.90
2019-05-30T15:22:48.937Z,21.07
2019-05-30T15:25:52.781Z,21.43
2019-05-30T15:28:56.601Z,20.60
2019-05-30T15:32:00.540Z,21.40
2019-05-30T15:35:04.613Z,20.03
2019-05-30T15:38:09.326Z,20.40
2019-05-30T15:41:13.259Z,20.63
2019-05-30T15:44:17.753Z,20.40
2019-05-30T15:47:21.670Z,19.50
2019-05-30T15:50:25.672Z,18.27
2019-05-30T15:53:29.513Z,17.23
2019-05-30T15:56:33.451Z,18.07
2019-05-30T15:59:37.305Z,18.67
2019-05-30T16:02:41.448Z,19.17
2019-05-30T16:05:45.381Z,21.30
2019-05-30T16:08:49.334Z,24.83
2019-05-30T16:11:53.161Z,28.73
2019-05-30T16:14:57.087Z,19.90
2019-05-30T16:18:00.966Z,20.07
2019-05-30T16:21:04.978Z,18.40
2019-05-30T16:24:08.877Z,19.10
2019-05-30T16:27:13.659Z,17.47
2019-05-30T16:30:21.698Z,35.17
2019-05-30T16:33:23.547Z,22.87
2019-05-30T16:36:27.405Z,20.00
2019-05-30T16:39:31.304Z,18.93
2019-05-30T16:42:35.129Z,17.73
2019-05-30T16:45:39.067Z,17.23
2019-05-30T16:48:42.908Z,15.30
2019-05-30T16:51:46.751Z,16.63
2019-05-30T16:54:50.578Z,15.67
2019-05-30T16:57:54.411Z,14.03
2019-05-30T17:00:58.356Z,15.20
2019-05-30T17:04:02.177Z,15.77
2019-05-30T17:07:06.156Z,14.90
2019-05-30T17:10:22.062Z,14.80
2019-05-30T17:13:17.665Z,15.23
2019-05-30T17:16:22.070Z,14.57
2019-05-30T17:19:26.543Z,15.43
2019-05-30T17:22:30.758Z,13.97
2019-05-30T17:25:34.708Z,14.83
2019-05-30T17:28:38.538Z,14.73
2019-05-30T17:31:42.401Z,13.97
2019-05-30T17:34:46.228Z,13.40
2019-05-30T17:37:50.816Z,13.30
2019-05-30T17:40:54.766Z,24.33
2019-05-30T17:43:58.803Z,35.60
2019-05-30T17:47:02.688Z,14.50
2019-05-30T17:50:06.810Z,13.97
2019-05-30T17:53:10.688Z,13.77
2019-05-30T17:56:14.535Z,12.50
2019-05-30T17:59:18.451Z,13.60
2019-05-30T18:02:22.395Z,13.27
2019-05-30T18:05:26.767Z,12.80
2019-05-30T18:08:31.366Z,12.53
2019-05-30T18:11:35.427Z,13.57
2019-05-30T18:14:39.270Z,13.10
2019-05-30T18:17:43.091Z,13.10
2019-05-30T18:20:48.675Z,13.73
2019-05-30T18:23:52.672Z,14.83
2019-05-30T18:26:56.515Z,14.57
2019-05-30T18:30:00.337Z,14.97
2019-05-30T18:33:04.181Z,15.00
2019-05-30T18:36:08.107Z,16.80
2019-05-30T18:39:12.002Z,15.73
2019-05-30T18:42:15.838Z,16.13
2019-05-30T18:45:24.928Z,17.13
2019-05-30T18:48:29.310Z,15.67
2019-05-30T18:51:33.286Z,16.70
2019-05-30T18:54:37.108Z,16.33
2019-05-30T18:57:40.956Z,15.27
2019-05-30T19:00:44.851Z,17.63
2019-05-30T19:03:48.693Z,16.80
2019-05-30T19:06:52.516Z,17.20
2019-05-30T19:09:56.379Z,18.10
2019-05-30T19:13:00.193Z,17.37
2019-05-30T19:16:04.460Z,16.87
2019-05-30T19:19:08.443Z,17.90
2019-05-30T19:22:12.250Z,18.17
2019-05-30T19:25:16.738Z,18.70
2019-05-30T19:28:20.708Z,18.87
2019-05-30T19:31:24.579Z,18.47
2019-05-30T19:34:28.578Z,20.23
2019-05-30T19:37:33.189Z,20.47
2019-05-30T19:40:38.028Z,18.67
2019-05-30T19:43:42.108Z,19.30
2019-05-30T19:46:46.004Z,19.37
2019-05-30T19:49:49.821Z,20.10
2019-05-30T19:52:53.729Z,19.80
2019-05-30T19:55:57.624Z,20.27
2019-05-30T19:59:01.533Z,18.43
2019-05-30T20:02:06.432Z,19.60
2019-05-30T20:05:10.529Z,18.40
2019-05-30T20:08:14.358Z,17.90
2019-05-30T20:11:18.283Z,17.93
2019-05-30T20:14:22.206Z,17.70
2019-05-30T20:17:26.096Z,17.73
2019-05-30T20:20:47.771Z,18.47
2019-05-30T20:23:47.362Z,19.00
2019-05-30T20:26:42.557Z,19.73
2019-05-30T20:29:46.917Z,18.67
2019-05-30T20:32:50.714Z,19.47
2019-05-30T20:35:54.674Z,18.67
2019-05-30T20:38:58.513Z,18.17
2019-05-30T20:42:18.345Z,18.60
2019-05-30T20:45:13.429Z,19.93
2019-05-30T20:48:20.336Z,19.03
2019-05-30T20:51:24.472Z,18.60
2019-05-30T20:54:28.448Z,19.67
2019-05-30T20:57:32.406Z,19.00
2019-05-30T21:00:38.169Z,18.63
2019-05-30T21:03:45.890Z,17.57
2019-05-30T21:06:50.549Z,19.73
2019-05-30T21:09:55.632Z,20.37
2019-05-30T21:13:01.924Z,18.43
2019-05-30T21:16:10.552Z,19.53
2019-05-30T21:19:17.082Z,18.47
2019-05-30T21:22:21.131Z,17.80
2019-05-30T21:25:25.217Z,18.33
2019-05-30T21:28:29.047Z,18.23
2019-05-30T21:31:33.031Z,17.50
2019-05-30T21:34:37.716Z,19.23
2019-05-30T21:37:42.113Z,18.87
2019-05-30T21:40:46.739Z,18.00
2019-05-30T21:43:50.952Z,18.63
2019-05-30T21:46:54.846Z,19.17
2019-05-30T21:50:00.363Z,18.30
2019-05-30T21:53:04.259Z,18.80
2019-05-30T21:56:08.139Z,19.10
2019-05-30T21:59:14.530Z,19.47
2019-05-30T22:02:18.882Z,18.27
2019-05-30T22:05:23.449Z,19.33
2019-05-30T22:08:27.678Z,20.43
2019-05-30T22:11:31.813Z,19.90
2019-05-30T22:14:35.841Z,20.30
2019-05-30T22:17:39.846Z,19.20
2019-05-30T22:20:47.939Z,20.60
2019-05-30T22:23:52.638Z,18.97
2019-05-30T22:26:56.574Z,20.43
2019-05-30T22:30:00.409Z,19.37
2019-05-30T22:33:04.316Z,18.53
2019-05-30T22:36:08.552Z,19.23
2019-05-30T22:39:12.440Z,19.30
2019-05-30T22:42:16.398Z,19.90
2019-05-30T22:45:20.659Z,19.73
2019-05-30T22:48:26.301Z,20.23
2019-05-30T22:51:31.466Z,21.23
2019-05-30T22:54:35.326Z,20.03
2019-05-30T22:57:39.159Z,21.90
2019-05-30T23:00:43.165Z,20.20
2019-05-30T23:03:47.516Z,21.57
2019-05-30T23:06:54.605Z,23.73
2019-05-30T23:09:58.500Z,22.37
2019-05-30T23:13:02.352Z,22.17
2019-05-30T23:16:07.042Z,23.67
2019-05-30T23:19:10.850Z,21.53
2019-05-30T23:22:14.828Z,23.93
2019-05-30T23:25:18.856Z,25.27
2019-05-30T23:28:22.835Z,24.27
2019-05-30T23:31:26.667Z,25.70
2019-05-30T23:34:30.562Z,24.90
2019-05-30T23:37:34.362Z,25.07
2019-05-30T23:40:38.187Z,25.70
2019-05-30T23:43:55.398Z,27.90
2019-05-30T23:46:47.634Z,28.53
2019-05-30T23:49:51.767Z,28.13
2019-05-30T23:52:56.254Z,29.40
2019-05-30T23:56:00.643Z,27.80
2019-05-30T23:59:04.635Z,30.43
